sensor_id;sensor_type;location;lat;lon;timestamp;P1;durP1;ratioP1;P2;durP2;ratioP2
70388;SDS011;58659;49.050;8.530;2023-04-06T00:00:12;3.93;;;2.17;;
70388;SDS011;58659;49.050;8.530;2023-04-06T00:02:39;3.30;;;1.77;;
70388;SDS011;58659;49.050;8.530;2023-04-06T00:05:05;2.80;;;1.53;;
70388;SDS011;58659;49.050;8.530;2023-04-06T00:07:31;6.00;;;2.33;;
70388;SDS011;58659;49.050;8.530;2023-04-06T00:09:58;3.77;;;1.70;;
70388;SDS011;58659;49.050;8.530;2023-04-06T00:12:23;3.67;;;1.60;;
70388;SDS011;58659;49.050;8.530;2023-04-06T00:14:49;3.67;;;1.90;;
70388;SDS011;58659;49.050;8.530;2023-04-06T00:17:15;2.23;;;1.73;;
70388;SDS011;58659;49.050;8.530;2023-04-06T00:19:40;5.00;;;1.80;;
70388;SDS011;58659;49.050;8.530;2023-04-06T00:22:06;4.33;;;2.40;;
70388;SDS011;58659;49.050;8.530;2023-04-06T00:24:31;5.40;;;2.03;;
70388;SDS011;58659;49.050;8.530;2023-04-06T00:26:57;3.63;;;1.80;;
70388;SDS011;58659;49.050;8.530;2023-04-06T00:29:22;5.40;;;2.10;;
70388;SDS011;58659;49.050;8.530;2023-04-06T00:31:47;4.57;;;1.97;;
70388;SDS011;58659;49.050;8.530;2023-04-06T00:34:13;3.87;;;2.10;;
70388;SDS011;58659;49.050;8.530;2023-04-06T00:36:40;6.90;;;2.27;;
70388;SDS011;58659;49.050;8.530;2023-04-06T00:39:06;4.83;;;2.33;;
70388;SDS011;58659;49.050;8.530;2023-04-06T00:41:31;3.30;;;1.97;;
70388;SDS011;58659;49.050;8.530;2023-04-06T00:43:56;5.33;;;2.60;;
70388;SDS011;58659;49.050;8.530;2023-04-06T00:46:22;4.87;;;1.90;;
70388;SDS011;58659;49.050;8.530;2023-04-06T00:48:47;3.83;;;2.00;;
70388;SDS011;58659;49.050;8.530;2023-04-06T00:51:13;3.60;;;1.93;;
70388;SDS011;58659;49.050;8.530;2023-04-06T00:53:38;4.10;;;2.27;;
70388;SDS011;58659;49.050;8.530;2023-04-06T00:56:04;4.87;;;2.30;;
70388;SDS011;58659;49.050;8.530;2023-04-06T00:58:29;5.90;;;2.87;;
70388;SDS011;58659;49.050;8.530;2023-04-06T01:00:55;3.20;;;1.90;;
70388;SDS011;58659;49.050;8.530;2023-04-06T01:03:21;2.97;;;1.90;;
70388;SDS011;58659;49.050;8.530;2023-04-06T01:05:46;4.50;;;2.37;;
70388;SDS011;58659;49.050;8.530;2023-04-06T01:08:11;4.33;;;1.90;;
70388;SDS011;58659;49.050;8.530;2023-04-06T01:10:37;5.93;;;2.90;;
70388;SDS011;58659;49.050;8.530;2023-04-06T01:13:02;3.63;;;1.97;;
70388;SDS011;58659;49.050;8.530;2023-04-06T01:15:28;3.27;;;1.70;;
70388;SDS011;58659;49.050;8.530;2023-04-06T01:17:54;5.77;;;2.43;;
70388;SDS011;58659;49.050;8.530;2023-04-06T01:20:19;3.43;;;1.93;;
70388;SDS011;58659;49.050;8.530;2023-04-06T01:22:45;4.50;;;2.33;;
70388;SDS011;58659;49.050;8.530;2023-04-06T01:25:11;4.80;;;2.50;;
70388;SDS011;58659;49.050;8.530;2023-04-06T01:27:36;5.43;;;2.30;;
70388;SDS011;58659;49.050;8.530;2023-04-06T01:30:02;9.30;;;2.70;;
70388;SDS011;58659;49.050;8.530;2023-04-06T01:32:27;4.70;;;2.37;;
70388;SDS011;58659;49.050;8.530;2023-04-06T01:34:53;4.87;;;2.03;;
70388;SDS011;58659;49.050;8.530;2023-04-06T01:37:19;4.30;;;2.23;;
70388;SDS011;58659;49.050;8.530;2023-04-06T01:39:45;7.23;;;2.20;;
70388;SDS011;58659;49.050;8.530;2023-04-06T01:42:11;5.27;;;2.10;;
70388;SDS011;58659;49.050;8.530;2023-04-06T01:44:36;3.60;;;1.80;;
70388;SDS011;58659;49.050;8.530;2023-04-06T01:47:02;3.20;;;1.97;;
70388;SDS011;58659;49.050;8.530;2023-04-06T01:49:27;4.77;;;1.97;;
70388;SDS011;58659;49.050;8.530;2023-04-06T01:51:52;2.60;;;1.63;;
70388;SDS011;58659;49.050;8.530;2023-04-06T01:54:19;3.63;;;2.00;;
70388;SDS011;58659;49.050;8.530;2023-04-06T01:56:44;5.27;;;1.93;;
70388;SDS011;58659;49.050;8.530;2023-04-06T01:59:10;4.03;;;2.10;;
70388;SDS011;58659;49.050;8.530;2023-04-06T02:01:35;3.90;;;1.93;;
70388;SDS011;58659;49.050;8.530;2023-04-06T02:04:01;3.87;;;1.87;;
70388;SDS011;58659;49.050;8.530;2023-04-06T02:06:26;6.37;;;2.37;;
70388;SDS011;58659;49.050;8.530;2023-04-06T02:08:52;4.90;;;1.93;;
70388;SDS011;58659;49.050;8.530;2023-04-06T02:11:17;3.60;;;2.20;;
70388;SDS011;58659;49.050;8.530;2023-04-06T02:13:43;4.33;;;2.33;;
70388;SDS011;58659;49.050;8.530;2023-04-06T02:16:08;5.57;;;2.30;;
70388;SDS011;58659;49.050;8.530;2023-04-06T02:18:34;3.80;;;2.33;;
70388;SDS011;58659;49.050;8.530;2023-04-06T02:20:59;3.80;;;2.07;;
70388;SDS011;58659;49.050;8.530;2023-04-06T02:23:25;5.40;;;2.40;;
70388;SDS011;58659;49.050;8.530;2023-04-06T02:25:51;4.53;;;2.37;;
70388;SDS011;58659;49.050;8.530;2023-04-06T02:28:16;7.37;;;2.13;;
70388;SDS011;58659;49.050;8.530;2023-04-06T02:30:41;3.77;;;2.07;;
70388;SDS011;58659;49.050;8.530;2023-04-06T02:33:07;3.93;;;1.70;;
70388;SDS011;58659;49.050;8.530;2023-04-06T02:35:32;5.63;;;2.37;;
70388;SDS011;58659;49.050;8.530;2023-04-06T02:37:57;4.10;;;2.10;;
70388;SDS011;58659;49.050;8.530;2023-04-06T02:40:23;5.17;;;1.77;;
70388;SDS011;58659;49.050;8.530;2023-04-06T02:42:48;4.47;;;1.87;;
70388;SDS011;58659;49.050;8.530;2023-04-06T02:45:13;2.57;;;1.87;;
70388;SDS011;58659;49.050;8.530;2023-04-06T02:47:39;3.00;;;1.67;;
70388;SDS011;58659;49.050;8.530;2023-04-06T02:50:05;4.97;;;2.57;;
70388;SDS011;58659;49.050;8.530;2023-04-06T02:52:31;5.03;;;2.53;;
70388;SDS011;58659;49.050;8.530;2023-04-06T02:54:56;2.77;;;1.40;;
70388;SDS011;58659;49.050;8.530;2023-04-06T02:57:22;3.77;;;2.00;;
70388;SDS011;58659;49.050;8.530;2023-04-06T02:59:47;4.00;;;2.33;;
70388;SDS011;58659;49.050;8.530;2023-04-06T03:02:13;4.43;;;2.00;;
70388;SDS011;58659;49.050;8.530;2023-04-06T03:04:38;4.37;;;2.07;;
70388;SDS011;58659;49.050;8.530;2023-04-06T03:07:03;4.80;;;2.10;;
70388;SDS011;58659;49.050;8.530;2023-04-06T03:09:29;4.90;;;2.13;;
70388;SDS011;58659;49.050;8.530;2023-04-06T03:11:54;3.87;;;1.93;;
70388;SDS011;58659;49.050;8.530;2023-04-06T03:14:20;2.30;;;1.70;;
70388;SDS011;58659;49.050;8.530;2023-04-06T03:16:47;5.70;;;2.13;;
70388;SDS011;58659;49.050;8.530;2023-04-06T03:19:13;4.00;;;2.03;;
70388;SDS011;58659;49.050;8.530;2023-04-06T03:21:39;4.13;;;2.10;;
70388;SDS011;58659;49.050;8.530;2023-04-06T03:24:04;4.83;;;2.40;;
70388;SDS011;58659;49.050;8.530;2023-04-06T03:26:30;3.73;;;1.90;;
70388;SDS011;58659;49.050;8.530;2023-04-06T03:28:56;3.93;;;2.00;;
70388;SDS011;58659;49.050;8.530;2023-04-06T03:31:21;3.70;;;1.90;;
70388;SDS011;58659;49.050;8.530;2023-04-06T03:33:46;5.60;;;2.50;;
70388;SDS011;58659;49.050;8.530;2023-04-06T03:36:12;3.70;;;1.90;;
70388;SDS011;58659;49.050;8.530;2023-04-06T03:38:37;3.63;;;2.17;;
70388;SDS011;58659;49.050;8.530;2023-04-06T03:41:02;4.03;;;2.07;;
70388;SDS011;58659;49.050;8.530;2023-04-06T03:43:28;5.43;;;1.53;;
70388;SDS011;58659;49.050;8.530;2023-04-06T03:45:53;3.80;;;1.93;;
70388;SDS011;58659;49.050;8.530;2023-04-06T03:48:18;5.07;;;1.87;;
70388;SDS011;58659;49.050;8.530;2023-04-06T03:50:44;2.97;;;1.80;;
70388;SDS011;58659;49.050;8.530;2023-04-06T03:53:09;3.83;;;1.90;;
70388;SDS011;58659;49.050;8.530;2023-04-06T03:55:35;4.17;;;1.57;;
70388;SDS011;58659;49.050;8.530;2023-04-06T03:58:00;2.57;;;1.40;;
70388;SDS011;58659;49.050;8.530;2023-04-06T04:00:26;5.00;;;2.10;;
70388;SDS011;58659;49.050;8.530;2023-04-06T04:02:51;3.33;;;1.73;;
70388;SDS011;58659;49.050;8.530;2023-04-06T04:05:17;2.53;;;1.73;;
70388;SDS011;58659;49.050;8.530;2023-04-06T04:07:42;2.77;;;1.80;;
70388;SDS011;58659;49.050;8.530;2023-04-06T04:10:08;3.43;;;1.87;;
70388;SDS011;58659;49.050;8.530;2023-04-06T04:12:33;2.97;;;1.70;;
70388;SDS011;58659;49.050;8.530;2023-04-06T04:14:59;3.67;;;2.10;;
70388;SDS011;58659;49.050;8.530;2023-04-06T04:17:24;2.67;;;1.67;;
70388;SDS011;58659;49.050;8.530;2023-04-06T04:19:50;3.60;;;1.73;;
70388;SDS011;58659;49.050;8.530;2023-04-06T04:22:15;2.70;;;1.97;;
70388;SDS011;58659;49.050;8.530;2023-04-06T04:24:40;3.50;;;1.80;;
70388;SDS011;58659;49.050;8.530;2023-04-06T04:27:06;3.87;;;2.00;;
70388;SDS011;58659;49.050;8.530;2023-04-06T04:29:31;4.07;;;2.17;;
70388;SDS011;58659;49.050;8.530;2023-04-06T04:31:56;3.57;;;1.90;;
70388;SDS011;58659;49.050;8.530;2023-04-06T04:34:22;5.97;;;2.30;;
70388;SDS011;58659;49.050;8.530;2023-04-06T04:36:50;4.07;;;2.33;;
70388;SDS011;58659;49.050;8.530;2023-04-06T04:39:16;5.27;;;2.50;;
70388;SDS011;58659;49.050;8.530;2023-04-06T04:41:41;3.37;;;1.70;;
70388;SDS011;58659;49.050;8.530;2023-04-06T04:44:06;3.73;;;1.90;;
70388;SDS011;58659;49.050;8.530;2023-04-06T04:46:32;6.03;;;1.50;;
70388;SDS011;58659;49.050;8.530;2023-04-06T04:48:57;3.23;;;1.80;;
70388;SDS011;58659;49.050;8.530;2023-04-06T04:51:23;5.23;;;2.13;;
70388;SDS011;58659;49.050;8.530;2023-04-06T04:53:49;4.60;;;2.57;;
70388;SDS011;58659;49.050;8.530;2023-04-06T04:56:15;3.47;;;1.77;;
70388;SDS011;58659;49.050;8.530;2023-04-06T04:58:40;7.77;;;1.80;;
70388;SDS011;58659;49.050;8.530;2023-04-06T05:01:05;2.90;;;1.50;;
70388;SDS011;58659;49.050;8.530;2023-04-06T05:03:32;3.67;;;1.83;;
70388;SDS011;58659;49.050;8.530;2023-04-06T05:05:57;2.83;;;1.53;;
70388;SDS011;58659;49.050;8.530;2023-04-06T05:08:22;3.80;;;1.83;;
70388;SDS011;58659;49.050;8.530;2023-04-06T05:10:48;4.43;;;1.83;;
70388;SDS011;58659;49.050;8.530;2023-04-06T05:13:13;4.40;;;2.20;;
70388;SDS011;58659;49.050;8.530;2023-04-06T05:15:39;4.60;;;2.27;;
70388;SDS011;58659;49.050;8.530;2023-04-06T05:18:06;4.70;;;2.43;;
70388;SDS011;58659;49.050;8.530;2023-04-06T05:20:32;4.13;;;2.17;;
70388;SDS011;58659;49.050;8.530;2023-04-06T05:22:58;4.83;;;2.13;;
70388;SDS011;58659;49.050;8.530;2023-04-06T05:25:23;3.77;;;1.87;;
70388;SDS011;58659;49.050;8.530;2023-04-06T05:27:49;2.87;;;1.70;;
70388;SDS011;58659;49.050;8.530;2023-04-06T05:30:14;3.77;;;1.80;;
70388;SDS011;58659;49.050;8.530;2023-04-06T05:32:40;3.83;;;1.93;;
70388;SDS011;58659;49.050;8.530;2023-04-06T05:35:06;9.00;;;2.00;;
70388;SDS011;58659;49.050;8.530;2023-04-06T05:37:31;3.57;;;1.93;;
70388;SDS011;58659;49.050;8.530;2023-04-06T05:39:57;3.67;;;1.90;;
70388;SDS011;58659;49.050;8.530;2023-04-06T05:42:22;4.50;;;2.27;;
70388;SDS011;58659;49.050;8.530;2023-04-06T05:44:48;2.97;;;1.97;;
70388;SDS011;58659;49.050;8.530;2023-04-06T05:47:14;5.70;;;1.90;;
70388;SDS011;58659;49.050;8.530;2023-04-06T05:49:41;4.03;;;1.90;;
70388;SDS011;58659;49.050;8.530;2023-04-06T05:52:06;4.20;;;2.10;;
70388;SDS011;58659;49.050;8.530;2023-04-06T05:54:33;4.10;;;2.03;;
70388;SDS011;58659;49.050;8.530;2023-04-06T05:56:59;4.27;;;2.40;;
70388;SDS011;58659;49.050;8.530;2023-04-06T05:59:26;5.57;;;2.70;;
70388;SDS011;58659;49.050;8.530;2023-04-06T06:01:51;5.47;;;2.50;;
70388;SDS011;58659;49.050;8.530;2023-04-06T06:04:17;5.43;;;2.30;;
70388;SDS011;58659;49.050;8.530;2023-04-06T06:06:42;3.37;;;2.07;;
70388;SDS011;58659;49.050;8.530;2023-04-06T06:09:08;4.13;;;2.20;;
70388;SDS011;58659;49.050;8.530;2023-04-06T06:11:33;4.27;;;2.23;;
70388;SDS011;58659;49.050;8.530;2023-04-06T06:13:59;5.50;;;2.17;;
70388;SDS011;58659;49.050;8.530;2023-04-06T06:16:24;6.83;;;2.50;;
70388;SDS011;58659;49.050;8.530;2023-04-06T06:18:49;4.90;;;2.07;;
70388;SDS011;58659;49.050;8.530;2023-04-06T06:21:15;5.27;;;2.10;;
70388;SDS011;58659;49.050;8.530;2023-04-06T06:23:42;4.17;;;2.40;;
70388;SDS011;58659;49.050;8.530;2023-04-06T06:26:07;4.93;;;2.20;;
70388;SDS011;58659;49.050;8.530;2023-04-06T06:28:33;4.03;;;2.13;;
70388;SDS011;58659;49.050;8.530;2023-04-06T06:30:58;4.60;;;2.13;;
70388;SDS011;58659;49.050;8.530;2023-04-06T06:33:23;2.83;;;1.50;;
70388;SDS011;58659;49.050;8.530;2023-04-06T06:35:51;4.93;;;2.13;;
70388;SDS011;58659;49.050;8.530;2023-04-06T06:38:16;6.20;;;2.27;;
70388;SDS011;58659;49.050;8.530;2023-04-06T06:40:42;5.37;;;2.37;;
70388;SDS011;58659;49.050;8.530;2023-04-06T06:43:07;4.20;;;1.87;;
70388;SDS011;58659;49.050;8.530;2023-04-06T06:45:33;6.37;;;2.17;;
70388;SDS011;58659;49.050;8.530;2023-04-06T06:47:58;4.57;;;2.80;;
70388;SDS011;58659;49.050;8.530;2023-04-06T06:50:23;6.43;;;2.17;;
70388;SDS011;58659;49.050;8.530;2023-04-06T06:52:49;4.60;;;2.13;;
70388;SDS011;58659;49.050;8.530;2023-04-06T06:55:15;5.97;;;1.93;;
70388;SDS011;58659;49.050;8.530;2023-04-06T06:57:40;5.13;;;2.30;;
70388;SDS011;58659;49.050;8.530;2023-04-06T07:00:07;2.53;;;1.43;;
70388;SDS011;58659;49.050;8.530;2023-04-06T07:02:34;2.67;;;1.53;;
70388;SDS011;58659;49.050;8.530;2023-04-06T07:05:00;1.50;;;1.40;;
70388;SDS011;58659;49.050;8.530;2023-04-06T07:07:26;4.33;;;1.47;;
70388;SDS011;58659;49.050;8.530;2023-04-06T07:09:52;3.43;;;2.20;;
70388;SDS011;58659;49.050;8.530;2023-04-06T07:12:17;4.90;;;2.50;;
70388;SDS011;58659;49.050;8.530;2023-04-06T07:14:43;6.30;;;1.60;;
70388;SDS011;58659;49.050;8.530;2023-04-06T07:17:08;3.00;;;1.57;;
70388;SDS011;58659;49.050;8.530;2023-04-06T07:19:35;6.87;;;1.87;;
70388;SDS011;58659;49.050;8.530;2023-04-06T07:22:00;4.80;;;1.80;;
70388;SDS011;58659;49.050;8.530;2023-04-06T07:24:25;2.23;;;1.33;;
70388;SDS011;58659;49.050;8.530;2023-04-06T07:26:51;2.93;;;1.17;;
70388;SDS011;58659;49.050;8.530;2023-04-06T07:29:16;2.30;;;1.70;;
70388;SDS011;58659;49.050;8.530;2023-04-06T07:31:43;3.40;;;1.57;;
70388;SDS011;58659;49.050;8.530;2023-04-06T07:34:08;0.40;;;0.40;;
70388;SDS011;58659;49.050;8.530;2023-04-06T07:36:33;2.90;;;0.60;;
70388;SDS011;58659;49.050;8.530;2023-04-06T07:38:59;5.03;;;1.20;;
70388;SDS011;58659;49.050;8.530;2023-04-06T07:41:24;1.63;;;1.10;;
70388;SDS011;58659;49.050;8.530;2023-04-06T07:43:49;5.10;;;1.53;;
70388;SDS011;58659;49.050;8.530;2023-04-06T07:46:15;5.97;;;1.17;;
70388;SDS011;58659;49.050;8.530;2023-04-06T07:48:40;1.63;;;0.80;;
70388;SDS011;58659;49.050;8.530;2023-04-06T07:51:06;2.57;;;0.87;;
70388;SDS011;58659;49.050;8.530;2023-04-06T07:53:31;3.30;;;1.43;;
70388;SDS011;58659;49.050;8.530;2023-04-06T07:56:00;2.60;;;1.50;;
70388;SDS011;58659;49.050;8.530;2023-04-06T07:58:25;3.37;;;1.23;;
70388;SDS011;58659;49.050;8.530;2023-04-06T08:00:51;1.33;;;0.90;;
70388;SDS011;58659;49.050;8.530;2023-04-06T08:03:16;1.33;;;1.00;;
70388;SDS011;58659;49.050;8.530;2023-04-06T08:05:42;1.63;;;1.27;;
70388;SDS011;58659;49.050;8.530;2023-04-06T08:08:07;2.47;;;1.10;;
70388;SDS011;58659;49.050;8.530;2023-04-06T08:10:33;1.27;;;1.17;;
70388;SDS011;58659;49.050;8.530;2023-04-06T08:12:59;1.60;;;0.83;;
70388;SDS011;58659;49.050;8.530;2023-04-06T08:15:25;2.13;;;1.20;;
70388;SDS011;58659;49.050;8.530;2023-04-06T08:17:50;2.63;;;1.50;;
70388;SDS011;58659;49.050;8.530;2023-04-06T08:20:15;1.30;;;0.90;;
70388;SDS011;58659;49.050;8.530;2023-04-06T08:22:41;2.23;;;1.30;;
70388;SDS011;58659;49.050;8.530;2023-04-06T08:25:06;1.10;;;1.00;;
70388;SDS011;58659;49.050;8.530;2023-04-06T08:27:32;1.40;;;0.90;;
70388;SDS011;58659;49.050;8.530;2023-04-06T08:29:57;1.57;;;1.10;;
70388;SDS011;58659;49.050;8.530;2023-04-06T08:32:23;5.63;;;1.50;;
70388;SDS011;58659;49.050;8.530;2023-04-06T08:34:48;2.10;;;1.27;;
70388;SDS011;58659;49.050;8.530;2023-04-06T08:37:13;1.30;;;0.97;;
70388;SDS011;58659;49.050;8.530;2023-04-06T08:39:39;2.37;;;1.33;;
70388;SDS011;58659;49.050;8.530;2023-04-06T08:42:10;2.67;;;1.27;;
70388;SDS011;58659;49.050;8.530;2023-04-06T08:44:37;2.13;;;1.20;;
70388;SDS011;58659;49.050;8.530;2023-04-06T08:47:04;4.07;;;0.77;;
70388;SDS011;58659;49.050;8.530;2023-04-06T08:49:29;10.37;;;1.93;;
70388;SDS011;58659;49.050;8.530;2023-04-06T08:51:55;2.30;;;0.93;;
70388;SDS011;58659;49.050;8.530;2023-04-06T08:54:22;3.00;;;1.07;;
70388;SDS011;58659;49.050;8.530;2023-04-06T08:56:47;3.50;;;0.93;;
70388;SDS011;58659;49.050;8.530;2023-04-06T08:59:13;2.20;;;0.83;;
70388;SDS011;58659;49.050;8.530;2023-04-06T09:01:40;0.93;;;0.70;;
70388;SDS011;58659;49.050;8.530;2023-04-06T09:04:08;2.10;;;1.10;;
70388;SDS011;58659;49.050;8.530;2023-04-06T09:06:37;1.83;;;1.00;;
70388;SDS011;58659;49.050;8.530;2023-04-06T09:09:02;2.87;;;0.80;;
70388;SDS011;58659;49.050;8.530;2023-04-06T09:11:28;1.47;;;0.90;;
70388;SDS011;58659;49.050;8.530;2023-04-06T09:13:54;4.00;;;1.27;;
70388;SDS011;58659;49.050;8.530;2023-04-06T09:16:21;2.80;;;1.40;;
70388;SDS011;58659;49.050;8.530;2023-04-06T09:18:48;2.77;;;0.87;;
70388;SDS011;58659;49.050;8.530;2023-04-06T09:21:16;2.43;;;1.10;;
70388;SDS011;58659;49.050;8.530;2023-04-06T09:23:43;2.87;;;1.20;;
70388;SDS011;58659;49.050;8.530;2023-04-06T09:28:43;1.47;;;0.90;;
70388;SDS011;58659;49.050;8.530;2023-04-06T09:31:16;2.33;;;1.10;;
70388;SDS011;58659;49.050;8.530;2023-04-06T09:33:46;1.90;;;1.30;;
70388;SDS011;58659;49.050;8.530;2023-04-06T09:36:12;1.60;;;1.10;;
70388;SDS011;58659;49.050;8.530;2023-04-06T09:38:50;2.50;;;1.03;;
70388;SDS011;58659;49.050;8.530;2023-04-06T09:41:27;1.73;;;1.20;;
70388;SDS011;58659;49.050;8.530;2023-04-06T09:44:04;3.23;;;1.50;;
70388;SDS011;58659;49.050;8.530;2023-04-06T09:46:43;1.27;;;0.97;;
70388;SDS011;58659;49.050;8.530;2023-04-06T09:49:10;2.63;;;1.80;;
70388;SDS011;58659;49.050;8.530;2023-04-06T09:51:37;5.07;;;1.80;;
70388;SDS011;58659;49.050;8.530;2023-04-06T09:54:03;3.07;;;1.07;;
70388;SDS011;58659;49.050;8.530;2023-04-06T09:59:14;1.97;;;1.27;;
70388;SDS011;58659;49.050;8.530;2023-04-06T10:02:01;1.30;;;1.20;;
70388;SDS011;58659;49.050;8.530;2023-04-06T10:07:07;2.83;;;1.10;;
70388;SDS011;58659;49.050;8.530;2023-04-06T10:09:36;1.40;;;1.03;;
70388;SDS011;58659;49.050;8.530;2023-04-06T10:12:05;2.53;;;1.50;;
70388;SDS011;58659;49.050;8.530;2023-04-06T10:14:34;1.90;;;1.23;;
70388;SDS011;58659;49.050;8.530;2023-04-06T10:17:03;3.73;;;1.40;;
70388;SDS011;58659;49.050;8.530;2023-04-06T10:19:32;3.60;;;1.80;;
70388;SDS011;58659;49.050;8.530;2023-04-06T10:22:10;2.93;;;1.67;;
70388;SDS011;58659;49.050;8.530;2023-04-06T10:24:40;1.23;;;1.10;;
70388;SDS011;58659;49.050;8.530;2023-04-06T10:27:06;4.53;;;1.50;;
70388;SDS011;58659;49.050;8.530;2023-04-06T10:29:44;2.60;;;1.10;;
70388;SDS011;58659;49.050;8.530;2023-04-06T10:32:11;2.20;;;1.10;;
70388;SDS011;58659;49.050;8.530;2023-04-06T10:34:37;2.60;;;1.27;;
70388;SDS011;58659;49.050;8.530;2023-04-06T10:37:12;2.40;;;1.33;;
70388;SDS011;58659;49.050;8.530;2023-04-06T10:39:47;3.57;;;1.50;;
70388;SDS011;58659;49.050;8.530;2023-04-06T10:42:35;2.60;;;1.40;;
70388;SDS011;58659;49.050;8.530;2023-04-06T10:45:04;2.10;;;1.47;;
70388;SDS011;58659;49.050;8.530;2023-04-06T10:47:41;2.17;;;1.07;;
70388;SDS011;58659;49.050;8.530;2023-04-06T10:50:06;2.83;;;1.63;;
70388;SDS011;58659;49.050;8.530;2023-04-06T10:52:32;2.93;;;1.70;;
70388;SDS011;58659;49.050;8.530;2023-04-06T10:54:57;4.53;;;1.70;;
70388;SDS011;58659;49.050;8.530;2023-04-06T10:57:29;2.83;;;1.70;;
70388;SDS011;58659;49.050;8.530;2023-04-06T10:59:56;2.63;;;1.50;;
70388;SDS011;58659;49.050;8.530;2023-04-06T11:02:22;3.43;;;1.80;;
70388;SDS011;58659;49.050;8.530;2023-04-06T11:04:56;2.80;;;1.50;;
70388;SDS011;58659;49.050;8.530;2023-04-06T11:07:23;3.53;;;1.50;;
70388;SDS011;58659;49.050;8.530;2023-04-06T11:09:50;3.63;;;1.10;;
70388;SDS011;58659;49.050;8.530;2023-04-06T11:12:22;2.33;;;1.47;;
70388;SDS011;58659;49.050;8.530;2023-04-06T11:14:56;2.07;;;1.50;;
70388;SDS011;58659;49.050;8.530;2023-04-06T11:17:27;6.17;;;1.77;;
70388;SDS011;58659;49.050;8.530;2023-04-06T11:19:54;2.47;;;1.20;;
70388;SDS011;58659;49.050;8.530;2023-04-06T11:22:19;3.10;;;1.67;;
70388;SDS011;58659;49.050;8.530;2023-04-06T11:24:45;2.23;;;1.40;;
70388;SDS011;58659;49.050;8.530;2023-04-06T11:27:10;4.23;;;1.90;;
70388;SDS011;58659;49.050;8.530;2023-04-06T11:29:36;2.57;;;1.40;;
70388;SDS011;58659;49.050;8.530;2023-04-06T11:32:06;11.47;;;1.73;;
70388;SDS011;58659;49.050;8.530;2023-04-06T11:34:34;3.10;;;1.43;;
70388;SDS011;58659;49.050;8.530;2023-04-06T11:37:02;5.67;;;1.70;;
70388;SDS011;58659;49.050;8.530;2023-04-06T11:39:30;2.87;;;1.63;;
70388;SDS011;58659;49.050;8.530;2023-04-06T11:41:58;3.30;;;1.33;;
70388;SDS011;58659;49.050;8.530;2023-04-06T11:46:57;3.57;;;1.63;;
70388;SDS011;58659;49.050;8.530;2023-04-06T11:49:26;1.90;;;1.27;;
70388;SDS011;58659;49.050;8.530;2023-04-06T11:51:53;2.57;;;1.53;;
70388;SDS011;58659;49.050;8.530;2023-04-06T11:54:28;2.77;;;1.40;;
70388;SDS011;58659;49.050;8.530;2023-04-06T11:57:05;2.43;;;1.17;;
70388;SDS011;58659;49.050;8.530;2023-04-06T11:59:31;3.40;;;1.17;;
70388;SDS011;58659;49.050;8.530;2023-04-06T12:01:57;2.63;;;1.40;;
70388;SDS011;58659;49.050;8.530;2023-04-06T12:04:23;3.87;;;1.87;;
70388;SDS011;58659;49.050;8.530;2023-04-06T12:06:49;5.60;;;1.37;;
70388;SDS011;58659;49.050;8.530;2023-04-06T12:09:14;2.57;;;1.50;;
70388;SDS011;58659;49.050;8.530;2023-04-06T12:11:41;2.33;;;1.47;;
70388;SDS011;58659;49.050;8.530;2023-04-06T12:14:06;1.67;;;1.20;;
70388;SDS011;58659;49.050;8.530;2023-04-06T12:16:32;3.13;;;1.43;;
70388;SDS011;58659;49.050;8.530;2023-04-06T12:18:59;3.10;;;1.60;;
70388;SDS011;58659;49.050;8.530;2023-04-06T12:21:26;3.33;;;1.40;;
70388;SDS011;58659;49.050;8.530;2023-04-06T12:23:52;3.63;;;1.80;;
70388;SDS011;58659;49.050;8.530;2023-04-06T12:26:18;2.57;;;1.17;;
70388;SDS011;58659;49.050;8.530;2023-04-06T12:28:43;3.90;;;1.63;;
70388;SDS011;58659;49.050;8.530;2023-04-06T12:31:19;1.60;;;1.27;;
70388;SDS011;58659;49.050;8.530;2023-04-06T12:33:46;4.67;;;1.43;;
70388;SDS011;58659;49.050;8.530;2023-04-06T12:36:16;3.43;;;1.30;;
70388;SDS011;58659;49.050;8.530;2023-04-06T12:38:49;2.73;;;1.03;;
70388;SDS011;58659;49.050;8.530;2023-04-06T12:41:16;2.10;;;1.47;;
70388;SDS011;58659;49.050;8.530;2023-04-06T12:43:42;3.63;;;1.50;;
70388;SDS011;58659;49.050;8.530;2023-04-06T12:46:08;2.30;;;1.67;;
70388;SDS011;58659;49.050;8.530;2023-04-06T12:48:34;4.93;;;1.57;;
70388;SDS011;58659;49.050;8.530;2023-04-06T12:51:01;3.07;;;0.90;;
70388;SDS011;58659;49.050;8.530;2023-04-06T12:53:28;3.10;;;1.73;;
70388;SDS011;58659;49.050;8.530;2023-04-06T12:55:54;3.43;;;1.83;;
70388;SDS011;58659;49.050;8.530;2023-04-06T12:58:21;2.43;;;1.53;;
70388;SDS011;58659;49.050;8.530;2023-04-06T13:00:47;2.47;;;1.33;;
70388;SDS011;58659;49.050;8.530;2023-04-06T13:03:13;1.27;;;0.87;;
70388;SDS011;58659;49.050;8.530;2023-04-06T13:05:45;3.07;;;1.00;;
70388;SDS011;58659;49.050;8.530;2023-04-06T13:08:11;2.80;;;1.13;;
70388;SDS011;58659;49.050;8.530;2023-04-06T13:10:37;1.47;;;1.10;;
70388;SDS011;58659;49.050;8.530;2023-04-06T13:13:02;2.67;;;1.50;;
70388;SDS011;58659;49.050;8.530;2023-04-06T13:15:28;3.57;;;1.77;;
70388;SDS011;58659;49.050;8.530;2023-04-06T13:17:53;2.87;;;1.40;;
70388;SDS011;58659;49.050;8.530;2023-04-06T13:20:19;3.93;;;1.30;;
70388;SDS011;58659;49.050;8.530;2023-04-06T13:22:45;3.47;;;1.30;;
70388;SDS011;58659;49.050;8.530;2023-04-06T13:25:10;3.07;;;1.60;;
70388;SDS011;58659;49.050;8.530;2023-04-06T13:27:35;4.47;;;1.63;;
70388;SDS011;58659;49.050;8.530;2023-04-06T13:30:01;2.33;;;1.37;;
70388;SDS011;58659;49.050;8.530;2023-04-06T13:32:27;3.93;;;1.80;;
70388;SDS011;58659;49.050;8.530;2023-04-06T13:34:56;2.13;;;1.30;;
70388;SDS011;58659;49.050;8.530;2023-04-06T13:37:21;3.17;;;1.40;;
70388;SDS011;58659;49.050;8.530;2023-04-06T13:39:47;3.03;;;1.30;;
70388;SDS011;58659;49.050;8.530;2023-04-06T13:42:12;3.20;;;1.73;;
70388;SDS011;58659;49.050;8.530;2023-04-06T13:44:37;2.27;;;1.40;;
70388;SDS011;58659;49.050;8.530;2023-04-06T13:47:03;4.27;;;2.30;;
70388;SDS011;58659;49.050;8.530;2023-04-06T13:49:28;2.70;;;1.00;;
70388;SDS011;58659;49.050;8.530;2023-04-06T13:51:54;6.40;;;1.50;;
70388;SDS011;58659;49.050;8.530;2023-04-06T13:54:19;2.13;;;1.07;;
70388;SDS011;58659;49.050;8.530;2023-04-06T13:56:45;3.17;;;1.23;;
70388;SDS011;58659;49.050;8.530;2023-04-06T13:59:10;2.40;;;1.13;;
70388;SDS011;58659;49.050;8.530;2023-04-06T14:01:36;2.10;;;1.20;;
70388;SDS011;58659;49.050;8.530;2023-04-06T14:04:02;2.50;;;1.57;;
70388;SDS011;58659;49.050;8.530;2023-04-06T14:06:27;3.10;;;1.53;;
70388;SDS011;58659;49.050;8.530;2023-04-06T14:08:53;2.57;;;1.00;;
70388;SDS011;58659;49.050;8.530;2023-04-06T14:11:18;2.73;;;1.60;;
70388;SDS011;58659;49.050;8.530;2023-04-06T14:13:44;2.93;;;1.50;;
70388;SDS011;58659;49.050;8.530;2023-04-06T14:16:09;2.20;;;1.10;;
70388;SDS011;58659;49.050;8.530;2023-04-06T14:18:36;3.07;;;1.10;;
70388;SDS011;58659;49.050;8.530;2023-04-06T14:21:01;3.20;;;1.20;;
70388;SDS011;58659;49.050;8.530;2023-04-06T14:23:27;1.80;;;1.07;;
70388;SDS011;58659;49.050;8.530;2023-04-06T14:26:03;2.93;;;0.90;;
70388;SDS011;58659;49.050;8.530;2023-04-06T14:28:30;3.20;;;1.23;;
70388;SDS011;58659;49.050;8.530;2023-04-06T14:30:56;3.00;;;1.40;;
70388;SDS011;58659;49.050;8.530;2023-04-06T14:33:21;2.17;;;1.00;;
70388;SDS011;58659;49.050;8.530;2023-04-06T14:35:46;2.47;;;1.30;;
70388;SDS011;58659;49.050;8.530;2023-04-06T14:38:12;4.17;;;1.30;;
70388;SDS011;58659;49.050;8.530;2023-04-06T14:40:37;4.77;;;0.80;;
70388;SDS011;58659;49.050;8.530;2023-04-06T14:43:03;2.90;;;1.90;;
70388;SDS011;58659;49.050;8.530;2023-04-06T14:45:29;3.10;;;1.33;;
70388;SDS011;58659;49.050;8.530;2023-04-06T14:47:54;2.47;;;1.33;;
70388;SDS011;58659;49.050;8.530;2023-04-06T14:50:20;2.63;;;1.33;;
70388;SDS011;58659;49.050;8.530;2023-04-06T14:52:45;3.93;;;1.40;;